sensor_id;sensor_type;location;lat;lon;timestamp;P1;durP1;ratioP1;P2;durP2;ratioP2
40074;SDS011;26529;51.530;11.754;2022-08-21T00:00:43;2.97;;;2.75;;
40074;SDS011;26529;51.530;11.754;2022-08-21T00:03:09;2.72;;;2.50;;
40074;SDS011;26529;51.530;11.754;2022-08-21T00:05:37;2.83;;;2.60;;
40074;SDS011;26529;51.530;11.754;2022-08-21T00:08:09;2.53;;;2.33;;
40074;SDS011;26529;51.530;11.754;2022-08-21T00:10:35;3.63;;;3.33;;
40074;SDS011;26529;51.530;11.754;2022-08-21T00:13:02;5.35;;;2.55;;
40074;SDS011;26529;51.530;11.754;2022-08-21T00:15:30;3.28;;;2.10;;
40074;SDS011;26529;51.530;11.754;2022-08-21T00:17:56;3.67;;;2.60;;
40074;SDS011;26529;51.530;11.754;2022-08-21T00:20:22;2.92;;;2.63;;
40074;SDS011;26529;51.530;11.754;2022-08-21T00:22:48;2.83;;;2.53;;
40074;SDS011;26529;51.530;11.754;2022-08-21T00:25:15;3.92;;;1.80;;
40074;SDS011;26529;51.530;11.754;2022-08-21T00:27:41;4.03;;;2.55;;
40074;SDS011;26529;51.530;11.754;2022-08-21T00:30:08;2.13;;;2.03;;
40074;SDS011;26529;51.530;11.754;2022-08-21T00:32:36;2.50;;;2.30;;
40074;SDS011;26529;51.530;11.754;2022-08-21T00:35:03;2.47;;;2.20;;
40074;SDS011;26529;51.530;11.754;2022-08-21T00:37:30;2.42;;;2.20;;
40074;SDS011;26529;51.530;11.754;2022-08-21T00:39:55;2.97;;;2.67;;
40074;SDS011;26529;51.530;11.754;2022-08-21T00:42:21;2.50;;;2.30;;
40074;SDS011;26529;51.530;11.754;2022-08-21T00:44:47;2.38;;;2.10;;
40074;SDS011;26529;51.530;11.754;2022-08-21T00:47:14;7.95;;;2.40;;
40074;SDS011;26529;51.530;11.754;2022-08-21T00:49:40;2.58;;;2.38;;
40074;SDS011;26529;51.530;11.754;2022-08-21T00:52:07;2.00;;;1.90;;
40074;SDS011;26529;51.530;11.754;2022-08-21T00:54:40;3.22;;;1.92;;
40074;SDS011;26529;51.530;11.754;2022-08-21T00:57:09;2.30;;;2.10;;
40074;SDS011;26529;51.530;11.754;2022-08-21T00:59:39;2.42;;;2.15;;
40074;SDS011;26529;51.530;11.754;2022-08-21T01:02:06;2.40;;;1.95;;
40074;SDS011;26529;51.530;11.754;2022-08-21T01:04:33;1.83;;;1.73;;
40074;SDS011;26529;51.530;11.754;2022-08-21T01:06:59;2.22;;;1.75;;
40074;SDS011;26529;51.530;11.754;2022-08-21T01:09:25;1.65;;;1.55;;
40074;SDS011;26529;51.530;11.754;2022-08-21T01:11:51;1.75;;;1.65;;
40074;SDS011;26529;51.530;11.754;2022-08-21T01:14:17;1.83;;;1.73;;
40074;SDS011;26529;51.530;11.754;2022-08-21T01:16:46;1.92;;;1.63;;
40074;SDS011;26529;51.530;11.754;2022-08-21T01:19:13;1.90;;;1.70;;
40074;SDS011;26529;51.530;11.754;2022-08-21T01:21:41;2.67;;;1.80;;
40074;SDS011;26529;51.530;11.754;2022-08-21T01:24:07;1.90;;;1.70;;
40074;SDS011;26529;51.530;11.754;2022-08-21T01:26:34;2.83;;;1.65;;
40074;SDS011;26529;51.530;11.754;2022-08-21T01:31:57;2.03;;;1.90;;
40074;SDS011;26529;51.530;11.754;2022-08-21T01:34:24;2.08;;;1.88;;
40074;SDS011;26529;51.530;11.754;2022-08-21T01:36:50;1.95;;;1.85;;
40074;SDS011;26529;51.530;11.754;2022-08-21T01:39:15;1.88;;;1.77;;
40074;SDS011;26529;51.530;11.754;2022-08-21T01:41:42;1.70;;;1.55;;
40074;SDS011;26529;51.530;11.754;2022-08-21T01:44:08;1.67;;;1.58;;
40074;SDS011;26529;51.530;11.754;2022-08-21T01:46:35;1.63;;;1.52;;
40074;SDS011;26529;51.530;11.754;2022-08-21T01:49:00;1.80;;;1.70;;
40074;SDS011;26529;51.530;11.754;2022-08-21T01:51:26;1.80;;;1.63;;
40074;SDS011;26529;51.530;11.754;2022-08-21T01:53:51;1.55;;;1.45;;
40074;SDS011;26529;51.530;11.754;2022-08-21T01:56:17;3.35;;;1.52;;
40074;SDS011;26529;51.530;11.754;2022-08-21T01:58:45;2.35;;;1.30;;
40074;SDS011;26529;51.530;11.754;2022-08-21T02:01:11;1.95;;;1.77;;
40074;SDS011;26529;51.530;11.754;2022-08-21T02:03:37;1.58;;;1.27;;
40074;SDS011;26529;51.530;11.754;2022-08-21T02:06:04;1.63;;;1.52;;
40074;SDS011;26529;51.530;11.754;2022-08-21T02:08:30;1.73;;;1.50;;
40074;SDS011;26529;51.530;11.754;2022-08-21T02:10:56;2.05;;;1.52;;
40074;SDS011;26529;51.530;11.754;2022-08-21T02:13:22;2.65;;;1.70;;
40074;SDS011;26529;51.530;11.754;2022-08-21T02:15:47;1.58;;;1.48;;
40074;SDS011;26529;51.530;11.754;2022-08-21T02:18:13;2.30;;;1.42;;
40074;SDS011;26529;51.530;11.754;2022-08-21T02:20:40;1.40;;;1.30;;
40074;SDS011;26529;51.530;11.754;2022-08-21T02:23:07;1.35;;;1.17;;
40074;SDS011;26529;51.530;11.754;2022-08-21T02:25:34;3.45;;;1.30;;
40074;SDS011;26529;51.530;11.754;2022-08-21T02:28:02;1.20;;;1.10;;
40074;SDS011;26529;51.530;11.754;2022-08-21T02:30:31;3.60;;;1.65;;
40074;SDS011;26529;51.530;11.754;2022-08-21T02:32:59;2.35;;;1.38;;
40074;SDS011;26529;51.530;11.754;2022-08-21T02:35:26;1.27;;;1.10;;
40074;SDS011;26529;51.530;11.754;2022-08-21T02:37:54;1.58;;;1.10;;
40074;SDS011;26529;51.530;11.754;2022-08-21T02:40:22;4.03;;;1.52;;
40074;SDS011;26529;51.530;11.754;2022-08-21T02:42:50;2.63;;;1.42;;
40074;SDS011;26529;51.530;11.754;2022-08-21T02:45:16;1.98;;;1.20;;
40074;SDS011;26529;51.530;11.754;2022-08-21T02:47:57;1.33;;;1.20;;
40074;SDS011;26529;51.530;11.754;2022-08-21T02:50:28;2.45;;;1.17;;
40074;SDS011;26529;51.530;11.754;2022-08-21T02:52:57;2.17;;;1.30;;
40074;SDS011;26529;51.530;11.754;2022-08-21T02:55:23;1.50;;;1.27;;
40074;SDS011;26529;51.530;11.754;2022-08-21T02:57:51;2.15;;;1.00;;
40074;SDS011;26529;51.530;11.754;2022-08-21T03:00:18;3.53;;;1.40;;
40074;SDS011;26529;51.530;11.754;2022-08-21T03:02:45;1.38;;;1.08;;
40074;SDS011;26529;51.530;11.754;2022-08-21T03:05:11;1.67;;;1.20;;
40074;SDS011;26529;51.530;11.754;2022-08-21T03:07:39;2.72;;;1.20;;
40074;SDS011;26529;51.530;11.754;2022-08-21T03:10:05;1.92;;;1.33;;
40074;SDS011;26529;51.530;11.754;2022-08-21T03:12:31;2.40;;;1.13;;
40074;SDS011;26529;51.530;11.754;2022-08-21T03:14:57;3.90;;;1.35;;
40074;SDS011;26529;51.530;11.754;2022-08-21T03:17:23;1.35;;;0.88;;
40074;SDS011;26529;51.530;11.754;2022-08-21T03:19:49;2.95;;;1.20;;
40074;SDS011;26529;51.530;11.754;2022-08-21T03:22:15;3.28;;;1.40;;
40074;SDS011;26529;51.530;11.754;2022-08-21T03:24:40;1.65;;;1.05;;
40074;SDS011;26529;51.530;11.754;2022-08-21T03:27:05;1.10;;;0.90;;
40074;SDS011;26529;51.530;11.754;2022-08-21T03:29:31;2.55;;;1.27;;
40074;SDS011;26529;51.530;11.754;2022-08-21T03:31:56;1.85;;;1.17;;
40074;SDS011;26529;51.530;11.754;2022-08-21T03:34:22;1.90;;;1.05;;
40074;SDS011;26529;51.530;11.754;2022-08-21T03:36:48;1.77;;;1.05;;
40074;SDS011;26529;51.530;11.754;2022-08-21T03:39:14;2.28;;;1.08;;
40074;SDS011;26529;51.530;11.754;2022-08-21T03:41:41;1.92;;;1.30;;
40074;SDS011;26529;51.530;11.754;2022-08-21T03:44:06;1.13;;;1.00;;
40074;SDS011;26529;51.530;11.754;2022-08-21T03:46:32;2.13;;;1.20;;
40074;SDS011;26529;51.530;11.754;2022-08-21T03:48:58;1.55;;;0.82;;
40074;SDS011;26529;51.530;11.754;2022-08-21T03:51:23;1.48;;;1.05;;
40074;SDS011;26529;51.530;11.754;2022-08-21T03:53:49;2.58;;;1.25;;
40074;SDS011;26529;51.530;11.754;2022-08-21T03:56:14;1.92;;;1.30;;
40074;SDS011;26529;51.530;11.754;2022-08-21T03:58:41;1.85;;;1.10;;
40074;SDS011;26529;51.530;11.754;2022-08-21T04:01:07;1.42;;;1.20;;
40074;SDS011;26529;51.530;11.754;2022-08-21T04:03:34;2.05;;;1.10;;
40074;SDS011;26529;51.530;11.754;2022-08-21T04:06:01;1.23;;;1.00;;
40074;SDS011;26529;51.530;11.754;2022-08-21T04:08:27;2.30;;;1.00;;
40074;SDS011;26529;51.530;11.754;2022-08-21T04:10:54;1.42;;;0.90;;
40074;SDS011;26529;51.530;11.754;2022-08-21T04:13:21;1.17;;;1.00;;
40074;SDS011;26529;51.530;11.754;2022-08-21T04:15:48;1.80;;;0.90;;
40074;SDS011;26529;51.530;11.754;2022-08-21T04:18:13;1.63;;;0.82;;
40074;SDS011;26529;51.530;11.754;2022-08-21T04:20:39;2.83;;;1.10;;
40074;SDS011;26529;51.530;11.754;2022-08-21T04:23:07;1.70;;;1.05;;
40074;SDS011;26529;51.530;11.754;2022-08-21T04:25:33;2.00;;;1.00;;
40074;SDS011;26529;51.530;11.754;2022-08-21T04:27:58;2.28;;;1.00;;
40074;SDS011;26529;51.530;11.754;2022-08-21T04:30:24;1.20;;;0.93;;
40074;SDS011;26529;51.530;11.754;2022-08-21T04:32:50;1.48;;;1.00;;
40074;SDS011;26529;51.530;11.754;2022-08-21T04:35:18;2.15;;;1.00;;
40074;SDS011;26529;51.530;11.754;2022-08-21T04:37:45;1.92;;;1.40;;
40074;SDS011;26529;51.530;11.754;2022-08-21T04:40:12;2.85;;;1.33;;
40074;SDS011;26529;51.530;11.754;2022-08-21T04:42:46;2.55;;;1.25;;
40074;SDS011;26529;51.530;11.754;2022-08-21T04:45:28;2.40;;;1.00;;
40074;SDS011;26529;51.530;11.754;2022-08-21T04:47:56;1.67;;;0.80;;
40074;SDS011;26529;51.530;11.754;2022-08-21T04:53:14;2.90;;;1.00;;
40074;SDS011;26529;51.530;11.754;2022-08-21T04:55:43;1.20;;;0.90;;
40074;SDS011;26529;51.530;11.754;2022-08-21T04:58:11;3.00;;;1.10;;
40074;SDS011;26529;51.530;11.754;2022-08-21T05:00:40;1.88;;;0.77;;
40074;SDS011;26529;51.530;11.754;2022-08-21T05:03:06;2.22;;;0.90;;
40074;SDS011;26529;51.530;11.754;2022-08-21T05:05:33;1.27;;;0.88;;
40074;SDS011;26529;51.530;11.754;2022-08-21T05:07:59;1.83;;;1.20;;
40074;SDS011;26529;51.530;11.754;2022-08-21T05:10:27;3.05;;;1.42;;
40074;SDS011;26529;51.530;11.754;2022-08-21T05:12:53;1.60;;;0.90;;
40074;SDS011;26529;51.530;11.754;2022-08-21T05:15:19;2.30;;;1.10;;
40074;SDS011;26529;51.530;11.754;2022-08-21T05:17:45;1.30;;;1.00;;
40074;SDS011;26529;51.530;11.754;2022-08-21T05:20:11;3.53;;;0.80;;
40074;SDS011;26529;51.530;11.754;2022-08-21T05:22:38;2.08;;;1.10;;
40074;SDS011;26529;51.530;11.754;2022-08-21T05:25:05;1.70;;;0.90;;
40074;SDS011;26529;51.530;11.754;2022-08-21T05:27:31;1.50;;;0.98;;
40074;SDS011;26529;51.530;11.754;2022-08-21T05:29:57;2.25;;;1.00;;
40074;SDS011;26529;51.530;11.754;2022-08-21T05:32:22;4.93;;;1.05;;
40074;SDS011;26529;51.530;11.754;2022-08-21T05:34:48;3.88;;;1.00;;
40074;SDS011;26529;51.530;11.754;2022-08-21T05:37:14;2.25;;;1.10;;
40074;SDS011;26529;51.530;11.754;2022-08-21T05:39:39;3.08;;;0.90;;
40074;SDS011;26529;51.530;11.754;2022-08-21T05:42:05;2.90;;;0.90;;
40074;SDS011;26529;51.530;11.754;2022-08-21T05:44:30;2.90;;;0.98;;
40074;SDS011;26529;51.530;11.754;2022-08-21T05:47:02;2.53;;;0.80;;
40074;SDS011;26529;51.530;11.754;2022-08-21T05:49:29;3.38;;;0.98;;
40074;SDS011;26529;51.530;11.754;2022-08-21T05:51:54;2.15;;;0.82;;
40074;SDS011;26529;51.530;11.754;2022-08-21T05:54:19;2.45;;;1.02;;
40074;SDS011;26529;51.530;11.754;2022-08-21T05:56:45;1.52;;;0.70;;
40074;SDS011;26529;51.530;11.754;2022-08-21T05:59:10;1.63;;;0.98;;
40074;SDS011;26529;51.530;11.754;2022-08-21T06:01:36;1.92;;;1.00;;
40074;SDS011;26529;51.530;11.754;2022-08-21T06:04:01;1.55;;;1.13;;
40074;SDS011;26529;51.530;11.754;2022-08-21T06:06:27;2.38;;;0.77;;
40074;SDS011;26529;51.530;11.754;2022-08-21T06:08:52;2.33;;;0.93;;
40074;SDS011;26529;51.530;11.754;2022-08-21T06:11:18;2.80;;;0.90;;
40074;SDS011;26529;51.530;11.754;2022-08-21T06:13:43;1.50;;;0.80;;
40074;SDS011;26529;51.530;11.754;2022-08-21T06:16:10;4.80;;;1.05;;
40074;SDS011;26529;51.530;11.754;2022-08-21T06:18:38;2.35;;;0.90;;
40074;SDS011;26529;51.530;11.754;2022-08-21T06:21:04;3.95;;;0.90;;
40074;SDS011;26529;51.530;11.754;2022-08-21T06:23:31;4.57;;;1.10;;
40074;SDS011;26529;51.530;11.754;2022-08-21T06:25:57;1.90;;;0.80;;
40074;SDS011;26529;51.530;11.754;2022-08-21T06:28:23;1.90;;;0.80;;
40074;SDS011;26529;51.530;11.754;2022-08-21T06:30:49;3.15;;;1.13;;
40074;SDS011;26529;51.530;11.754;2022-08-21T06:33:14;1.27;;;0.90;;
40074;SDS011;26529;51.530;11.754;2022-08-21T06:35:40;1.83;;;0.90;;
40074;SDS011;26529;51.530;11.754;2022-08-21T06:38:05;2.92;;;1.05;;
40074;SDS011;26529;51.530;11.754;2022-08-21T06:40:31;1.95;;;1.05;;
40074;SDS011;26529;51.530;11.754;2022-08-21T06:42:57;1.77;;;0.80;;
40074;SDS011;26529;51.530;11.754;2022-08-21T06:45:23;1.90;;;0.85;;
40074;SDS011;26529;51.530;11.754;2022-08-21T06:47:49;1.65;;;0.70;;
40074;SDS011;26529;51.530;11.754;2022-08-21T06:50:15;1.15;;;0.75;;
40074;SDS011;26529;51.530;11.754;2022-08-21T06:52:40;1.67;;;0.77;;
40074;SDS011;26529;51.530;11.754;2022-08-21T06:55:07;6.18;;;0.98;;
40074;SDS011;26529;51.530;11.754;2022-08-21T06:57:34;1.73;;;0.90;;
40074;SDS011;26529;51.530;11.754;2022-08-21T06:59:59;2.40;;;0.90;;
40074;SDS011;26529;51.530;11.754;2022-08-21T07:02:25;4.70;;;0.80;;
40074;SDS011;26529;51.530;11.754;2022-08-21T07:04:50;1.60;;;1.02;;
40074;SDS011;26529;51.530;11.754;2022-08-21T07:07:16;3.28;;;0.88;;
40074;SDS011;26529;51.530;11.754;2022-08-21T07:09:42;6.35;;;1.20;;
40074;SDS011;26529;51.530;11.754;2022-08-21T07:12:07;2.90;;;0.95;;
40074;SDS011;26529;51.530;11.754;2022-08-21T07:14:34;2.72;;;1.02;;
40074;SDS011;26529;51.530;11.754;2022-08-21T07:17:00;3.38;;;1.40;;
40074;SDS011;26529;51.530;11.754;2022-08-21T07:19:25;2.92;;;1.05;;
40074;SDS011;26529;51.530;11.754;2022-08-21T07:21:52;2.13;;;1.00;;
40074;SDS011;26529;51.530;11.754;2022-08-21T07:24:22;4.15;;;1.13;;
40074;SDS011;26529;51.530;11.754;2022-08-21T07:26:48;1.60;;;0.77;;
40074;SDS011;26529;51.530;11.754;2022-08-21T07:29:13;2.55;;;0.98;;
40074;SDS011;26529;51.530;11.754;2022-08-21T07:31:39;4.93;;;1.08;;
40074;SDS011;26529;51.530;11.754;2022-08-21T07:34:05;1.33;;;0.90;;
40074;SDS011;26529;51.530;11.754;2022-08-21T07:36:30;4.75;;;0.93;;
40074;SDS011;26529;51.530;11.754;2022-08-21T07:38:56;2.53;;;0.98;;
40074;SDS011;26529;51.530;11.754;2022-08-21T07:41:23;1.60;;;0.60;;
40074;SDS011;26529;51.530;11.754;2022-08-21T07:43:51;1.42;;;0.60;;
40074;SDS011;26529;51.530;11.754;2022-08-21T07:46:16;1.70;;;0.70;;
40074;SDS011;26529;51.530;11.754;2022-08-21T07:48:42;1.75;;;0.77;;
40074;SDS011;26529;51.530;11.754;2022-08-21T07:51:10;5.00;;;1.05;;
40074;SDS011;26529;51.530;11.754;2022-08-21T07:53:37;3.38;;;0.80;;
40074;SDS011;26529;51.530;11.754;2022-08-21T07:56:06;6.20;;;1.17;;
40074;SDS011;26529;51.530;11.754;2022-08-21T07:58:33;1.75;;;0.90;;
40074;SDS011;26529;51.530;11.754;2022-08-21T08:00:59;4.35;;;0.93;;
40074;SDS011;26529;51.530;11.754;2022-08-21T08:03:25;15.82;;;1.40;;
40074;SDS011;26529;51.530;11.754;2022-08-21T08:05:51;2.30;;;0.93;;
40074;SDS011;26529;51.530;11.754;2022-08-21T08:08:16;2.78;;;0.80;;
40074;SDS011;26529;51.530;11.754;2022-08-21T08:10:42;5.97;;;1.05;;
40074;SDS011;26529;51.530;11.754;2022-08-21T08:13:08;2.25;;;0.90;;
40074;SDS011;26529;51.530;11.754;2022-08-21T08:15:35;4.60;;;0.90;;
40074;SDS011;26529;51.530;11.754;2022-08-21T08:18:01;2.28;;;0.70;;
40074;SDS011;26529;51.530;11.754;2022-08-21T08:20:27;4.30;;;1.10;;
40074;SDS011;26529;51.530;11.754;2022-08-21T08:22:54;6.50;;;1.25;;
40074;SDS011;26529;51.530;11.754;2022-08-21T08:25:20;3.47;;;0.98;;
40074;SDS011;26529;51.530;11.754;2022-08-21T08:27:48;3.60;;;1.23;;
40074;SDS011;26529;51.530;11.754;2022-08-21T08:30:14;1.67;;;0.55;;
40074;SDS011;26529;51.530;11.754;2022-08-21T08:32:41;3.03;;;0.55;;
40074;SDS011;26529;51.530;11.754;2022-08-21T08:35:07;2.80;;;1.10;;
40074;SDS011;26529;51.530;11.754;2022-08-21T08:37:34;3.42;;;1.20;;
40074;SDS011;26529;51.530;11.754;2022-08-21T08:40:03;4.85;;;1.00;;
40074;SDS011;26529;51.530;11.754;2022-08-21T08:42:31;3.35;;;1.30;;
40074;SDS011;26529;51.530;11.754;2022-08-21T08:45:10;3.22;;;0.73;;
40074;SDS011;26529;51.530;11.754;2022-08-21T08:47:39;3.55;;;0.80;;
40074;SDS011;26529;51.530;11.754;2022-08-21T08:50:24;5.00;;;0.75;;
40074;SDS011;26529;51.530;11.754;2022-08-21T08:53:02;4.85;;;0.88;;
40074;SDS011;26529;51.530;11.754;2022-08-21T08:55:36;1.17;;;0.60;;
40074;SDS011;26529;51.530;11.754;2022-08-21T08:58:04;1.80;;;0.90;;
40074;SDS011;26529;51.530;11.754;2022-08-21T09:00:30;3.20;;;0.77;;
40074;SDS011;26529;51.530;11.754;2022-08-21T09:02:57;3.55;;;0.90;;
40074;SDS011;26529;51.530;11.754;2022-08-21T09:21:57;2.05;;;0.80;;
40074;SDS011;26529;51.530;11.754;2022-08-21T09:27:19;2.80;;;0.93;;
40074;SDS011;26529;51.530;11.754;2022-08-21T09:29:48;3.63;;;1.10;;
40074;SDS011;26529;51.530;11.754;2022-08-21T09:32:24;1.98;;;0.70;;
40074;SDS011;26529;51.530;11.754;2022-08-21T09:34:59;1.98;;;0.68;;
40074;SDS011;26529;51.530;11.754;2022-08-21T09:40:41;2.92;;;0.95;;
40074;SDS011;26529;51.530;11.754;2022-08-21T09:45:37;3.42;;;0.80;;
40074;SDS011;26529;51.530;11.754;2022-08-21T09:50:37;2.47;;;1.00;;
40074;SDS011;26529;51.530;11.754;2022-08-21T09:53:03;1.75;;;0.80;;
40074;SDS011;26529;51.530;11.754;2022-08-21T09:55:34;1.38;;;0.52;;
40074;SDS011;26529;51.530;11.754;2022-08-21T09:58:30;3.05;;;1.10;;
40074;SDS011;26529;51.530;11.754;2022-08-21T10:01:01;4.63;;;1.05;;
40074;SDS011;26529;51.530;11.754;2022-08-21T10:03:28;3.30;;;0.65;;
40074;SDS011;26529;51.530;11.754;2022-08-21T10:05:58;0.75;;;0.60;;
40074;SDS011;26529;51.530;11.754;2022-08-21T10:08:27;2.97;;;0.63;;
40074;SDS011;26529;51.530;11.754;2022-08-21T10:10:55;5.97;;;0.85;;
40074;SDS011;26529;51.530;11.754;2022-08-21T10:16:28;2.80;;;0.98;;
40074;SDS011;26529;51.530;11.754;2022-08-21T10:19:05;1.27;;;0.88;;
40074;SDS011;26529;51.530;11.754;2022-08-21T10:24:49;1.90;;;0.82;;
40074;SDS011;26529;51.530;11.754;2022-08-21T10:27:22;3.50;;;0.95;;
40074;SDS011;26529;51.530;11.754;2022-08-21T10:30:16;1.75;;;0.70;;
40074;SDS011;26529;51.530;11.754;2022-08-21T10:32:50;3.30;;;0.63;;
40074;SDS011;26529;51.530;11.754;2022-08-21T10:35:29;2.75;;;0.82;;
40074;SDS011;26529;51.530;11.754;2022-08-21T10:40:53;1.75;;;0.60;;
40074;SDS011;26529;51.530;11.754;2022-08-21T10:43:49;2.08;;;0.63;;
40074;SDS011;26529;51.530;11.754;2022-08-21T10:49:26;1.10;;;0.60;;
40074;SDS011;26529;51.530;11.754;2022-08-21T10:54:59;2.30;;;0.82;;
40074;SDS011;26529;51.530;11.754;2022-08-21T11:00:07;2.15;;;1.27;;
40074;SDS011;26529;51.530;11.754;2022-08-21T11:02:38;1.13;;;0.73;;
40074;SDS011;26529;51.530;11.754;2022-08-21T11:05:13;1.55;;;0.60;;
40074;SDS011;26529;51.530;11.754;2022-08-21T11:07:47;1.80;;;0.70;;
40074;SDS011;26529;51.530;11.754;2022-08-21T11:12:55;2.28;;;0.90;;
40074;SDS011;26529;51.530;11.754;2022-08-21T11:15:33;1.03;;;0.70;;
40074;SDS011;26529;51.530;11.754;2022-08-21T11:18:15;1.30;;;0.45;;
40074;SDS011;26529;51.530;11.754;2022-08-21T11:20:49;1.77;;;0.82;;
40074;SDS011;26529;51.530;11.754;2022-08-21T11:23:25;1.55;;;0.77;;
40074;SDS011;26529;51.530;11.754;2022-08-21T11:26:02;2.33;;;0.70;;
40074;SDS011;26529;51.530;11.754;2022-08-21T11:28:34;1.80;;;0.80;;
40074;SDS011;26529;51.530;11.754;2022-08-21T11:33:43;1.27;;;0.70;;
40074;SDS011;26529;51.530;11.754;2022-08-21T11:36:21;2.55;;;1.20;;
40074;SDS011;26529;51.530;11.754;2022-08-21T11:39:10;2.80;;;0.98;;
40074;SDS011;26529;51.530;11.754;2022-08-21T11:41:43;2.15;;;0.68;;
40074;SDS011;26529;51.530;11.754;2022-08-21T11:44:23;1.90;;;0.73;;
40074;SDS011;26529;51.530;11.754;2022-08-21T11:47:13;3.72;;;1.23;;
40074;SDS011;26529;51.530;11.754;2022-08-21T11:50:02;1.35;;;0.80;;
40074;SDS011;26529;51.530;11.754;2022-08-21T11:52:43;1.77;;;0.65;;
40074;SDS011;26529;51.530;11.754;2022-08-21T11:57:58;1.50;;;0.80;;
40074;SDS011;26529;51.530;11.754;2022-08-21T12:00:39;2.03;;;0.70;;
40074;SDS011;26529;51.530;11.754;2022-08-21T12:03:11;2.83;;;0.98;;
40074;SDS011;26529;51.530;11.754;2022-08-21T12:05:41;1.83;;;0.70;;
40074;SDS011;26529;51.530;11.754;2022-08-21T12:08:12;1.88;;;0.90;;
40074;SDS011;26529;51.530;11.754;2022-08-21T12:10:41;2.72;;;0.95;;
40074;SDS011;26529;51.530;11.754;2022-08-21T12:13:26;3.25;;;0.75;;
40074;SDS011;26529;51.530;11.754;2022-08-21T12:16:04;1.33;;;0.73;;
40074;SDS011;26529;51.530;11.754;2022-08-21T12:18:39;2.28;;;1.00;;
40074;SDS011;26529;51.530;11.754;2022-08-21T12:21:16;2.15;;;1.15;;
40074;SDS011;26529;51.530;11.754;2022-08-21T12:23:57;1.92;;;0.90;;
40074;SDS011;26529;51.530;11.754;2022-08-21T12:26:28;3.15;;;1.10;;
40074;SDS011;26529;51.530;11.754;2022-08-21T12:29:11;2.28;;;0.80;;
40074;SDS011;26529;51.530;11.754;2022-08-21T12:31:47;2.17;;;0.55;;
40074;SDS011;26529;51.530;11.754;2022-08-21T12:34:15;2.35;;;0.70;;
40074;SDS011;26529;51.530;11.754;2022-08-21T12:36:46;2.08;;;0.90;;
40074;SDS011;26529;51.530;11.754;2022-08-21T12:39:22;2.22;;;0.77;;
40074;SDS011;26529;51.530;11.754;2022-08-21T12:41:54;2.28;;;0.70;;
40074;SDS011;26529;51.530;11.754;2022-08-21T12:44:28;2.83;;;1.00;;
40074;SDS011;26529;51.530;11.754;2022-08-21T12:47:04;2.72;;;0.88;;
40074;SDS011;26529;51.530;11.754;2022-08-21T12:50:21;2.40;;;1.10;;
40074;SDS011;26529;51.530;11.754;2022-08-21T12:52:32;3.30;;;0.88;;
40074;SDS011;26529;51.530;11.754;2022-08-21T12:55:00;2.75;;;0.90;;
40074;SDS011;26529;51.530;11.754;2022-08-21T12:57:28;0.90;;;0.50;;
40074;SDS011;26529;51.530;11.754;2022-08-21T12:59:59;4.60;;;1.05;;
40074;SDS011;26529;51.530;11.754;2022-08-21T13:02:30;1.60;;;0.60;;
40074;SDS011;26529;51.530;11.754;2022-08-21T13:04:58;4.78;;;0.98;;
40074;SDS011;26529;51.530;11.754;2022-08-21T13:07:29;3.00;;;0.95;;
40074;SDS011;26529;51.530;11.754;2022-08-21T13:09:58;2.65;;;0.95;;
40074;SDS011;26529;51.530;11.754;2022-08-21T13:12:38;3.47;;;1.00;;
40074;SDS011;26529;51.530;11.754;2022-08-21T13:15:06;3.03;;;1.13;;
40074;SDS011;26529;51.530;11.754;2022-08-21T13:17:34;2.28;;;1.00;;
40074;SDS011;26529;51.530;11.754;2022-08-21T13:20:04;2.08;;;0.60;;
40074;SDS011;26529;51.530;11.754;2022-08-21T13:22:42;2.10;;;0.85;;
40074;SDS011;26529;51.530;11.754;2022-08-21T13:25:12;3.40;;;1.00;;
40074;SDS011;26529;51.530;11.754;2022-08-21T13:27:42;3.28;;;1.02;;
40074;SDS011;26529;51.530;11.754;2022-08-21T13:30:19;2.60;;;1.00;;
40074;SDS011;26529;51.530;11.754;2022-08-21T13:32:48;1.95;;;1.05;;
40074;SDS011;26529;51.530;11.754;2022-08-21T13:35:17;1.30;;;0.70;;
40074;SDS011;26529;51.530;11.754;2022-08-21T13:37:45;1.42;;;1.00;;
40074;SDS011;26529;51.530;11.754;2022-08-21T13:40:14;3.20;;;1.08;;
40074;SDS011;26529;51.530;11.754;2022-08-21T13:42:43;2.13;;;1.00;;
40074;SDS011;26529;51.530;11.754;2022-08-21T13:49:12;1.35;;;1.10;;
40074;SDS011;26529;51.530;11.754;2022-08-21T13:51:39;4.38;;;1.05;;
40074;SDS011;26529;51.530;11.754;2022-08-21T13:54:15;2.65;;;0.70;;
40074;SDS011;26529;51.530;11.754;2022-08-21T13:56:46;2.35;;;0.90;;
40074;SDS011;26529;51.530;11.754;2022-08-21T13:59:14;2.05;;;0.80;;
40074;SDS011;26529;51.530;11.754;2022-08-21T14:01:51;2.72;;;0.90;;
40074;SDS011;26529;51.530;11.754;2022-08-21T14:04:23;1.77;;;0.80;;
40074;SDS011;26529;51.530;11.754;2022-08-21T14:06:51;1.98;;;0.98;;
40074;SDS011;26529;51.530;11.754;2022-08-21T14:09:26;1.63;;;0.90;;
40074;SDS011;26529;51.530;11.754;2022-08-21T14:11:59;3.53;;;0.90;;
40074;SDS011;26529;51.530;11.754;2022-08-21T14:14:30;1.33;;;0.88;;
40074;SDS011;26529;51.530;11.754;2022-08-21T14:16:59;1.38;;;0.60;;
40074;SDS011;26529;51.530;11.754;2022-08-21T14:19:43;3.90;;;1.10;;
40074;SDS011;26529;51.530;11.754;2022-08-21T14:30:29;5.07;;;0.90;;
40074;SDS011;26529;51.530;11.754;2022-08-21T14:32:58;4.88;;;1.38;;
40074;SDS011;26529;51.530;11.754;2022-08-21T14:35:24;3.88;;;0.95;;
40074;SDS011;26529;51.530;11.754;2022-08-21T14:37:50;12.02;;;1.70;;
40074;SDS011;26529;51.530;11.754;2022-08-21T14:40:16;14.30;;;2.00;;
40074;SDS011;26529;51.530;11.754;2022-08-21T14:42:43;9.57;;;1.45;;
40074;SDS011;26529;51.530;11.754;2022-08-21T14:45:21;2.78;;;1.30;;
40074;SDS011;26529;51.530;11.754;2022-08-21T14:47:52;6.07;;;1.67;;
40074;SDS011;26529;51.530;11.754;2022-08-21T14:50:17;5.72;;;0.90;;
40074;SDS011;26529;51.530;11.754;2022-08-21T14:52:43;10.50;;;1.60;;
40074;SDS011;26529;51.530;11.754;2022-08-21T14:55:10;5.68;;;1.00;;
40074;SDS011;26529;51.530;11.754;2022-08-21T14:57:38;2.97;;;0.70;;
40074;SDS011;26529;51.530;11.754;2022-08-21T15:00:06;7.22;;;0.95;;
40074;SDS011;26529;51.530;11.754;2022-08-21T15:02:33;3.33;;;1.20;;
40074;SDS011;26529;51.530;11.754;2022-08-21T15:04:58;3.92;;;1.15;;
40074;SDS011;26529;51.530;11.754;2022-08-21T15:07:24;5.22;;;1.27;;
40074;SDS011;26529;51.530;11.754;2022-08-21T15:09:49;2.75;;;0.82;;
40074;SDS011;26529;51.530;11.754;2022-08-21T15:12:15;7.00;;;1.10;;
40074;SDS011;26529;51.530;11.754;2022-08-21T15:14:40;2.25;;;1.13;;
40074;SDS011;26529;51.530;11.754;2022-08-21T15:17:10;6.07;;;1.35;;
40074;SDS011;26529;51.530;11.754;2022-08-21T15:19:36;3.25;;;1.10;;
40074;SDS011;26529;51.530;11.754;2022-08-21T15:22:04;3.42;;;1.00;;
40074;SDS011;26529;51.530;11.754;2022-08-21T15:24:29;5.28;;;1.05;;
40074;SDS011;26529;51.530;11.754;2022-08-21T15:26:55;5.47;;;1.13;;
40074;SDS011;26529;51.530;11.754;2022-08-21T15:29:24;5.35;;;1.10;;
40074;SDS011;26529;51.530;11.754;2022-08-21T15:31:53;3.50;;;1.27;;
40074;SDS011;26529;51.530;11.754;2022-08-21T15:34:21;2.53;;;0.88;;
40074;SDS011;26529;51.530;11.754;2022-08-21T15:36:47;4.68;;;1.33;;
40074;SDS011;26529;51.530;11.754;2022-08-21T15:39:13;4.20;;;1.13;;
40074;SDS011;26529;51.530;11.754;2022-08-21T15:41:38;4.43;;;1.27;;
40074;SDS011;26529;51.530;11.754;2022-08-21T15:44:04;3.90;;;1.30;;
40074;SDS011;26529;51.530;11.754;2022-08-21T15:46:30;3.20;;;0.77;;
40074;SDS011;26529;51.530;11.754;2022-08-21T15:48:56;3.63;;;1.23;;
40074;SDS011;26529;51.530;11.754;2022-08-21T15:51:21;4.82;;;1.25;;
40074;SDS011;26529;51.530;11.754;2022-08-21T15:53:47;2.33;;;1.20;;